Weather at Leszno Strzyzewi Airport

Public forecast

Using degrees Celsius for public forecast. Weather courtesy of forecast.io.

Closest aviation weather report (METAR) to Leszno Strzyzewi Airport

Closest report is Zielona Góra-Babimost Airport, 32.4 nm (59.9 km) NW. Retrieved 2020/09/19 07:30 UTC (25 minutes ago):

EPZG 190730Z VRB02KT CAVOK 10/07 Q1025

Closest aviation forecast (TAF) to Leszno Strzyzewi Airport

Forecast is more than 12 hours old.

Closest forecast is Zielona Góra-Babimost Airport, 32.4 nm (59.9 km) NW. Retrieved 2012/06/28 21:49 UTC (8 years ago):

TAF EPZG 282000Z 2821/2906 VRB02KT CAVOK TEMPO 2823/2904 5000 BR PROB30 2900/2904 1500 BR BKN005